sensor_id;sensor_type;location;lat;lon;timestamp;P1;durP1;ratioP1;P2;durP2;ratioP2
65769;SDS011;52512;47.650;8.578;2023-05-29T00:01:34;6.87;;;3.77;;
65769;SDS011;52512;47.650;8.578;2023-05-29T00:04:01;7.60;;;4.40;;
65769;SDS011;52512;47.650;8.578;2023-05-29T00:06:26;9.13;;;5.70;;
65769;SDS011;52512;47.650;8.578;2023-05-29T00:08:52;7.37;;;4.10;;
65769;SDS011;52512;47.650;8.578;2023-05-29T00:11:18;7.97;;;4.27;;
65769;SDS011;52512;47.650;8.578;2023-05-29T00:13:44;4.20;;;3.47;;
65769;SDS011;52512;47.650;8.578;2023-05-29T00:16:09;10.77;;;4.43;;
65769;SDS011;52512;47.650;8.578;2023-05-29T00:18:35;8.80;;;4.20;;
65769;SDS011;52512;47.650;8.578;2023-05-29T00:21:01;9.53;;;4.77;;
65769;SDS011;52512;47.650;8.578;2023-05-29T00:23:27;8.90;;;4.70;;
65769;SDS011;52512;47.650;8.578;2023-05-29T00:25:53;9.87;;;3.90;;
65769;SDS011;52512;47.650;8.578;2023-05-29T00:28:18;17.47;;;4.40;;
65769;SDS011;52512;47.650;8.578;2023-05-29T00:30:44;8.43;;;4.30;;
65769;SDS011;52512;47.650;8.578;2023-05-29T00:33:10;6.30;;;4.57;;
65769;SDS011;52512;47.650;8.578;2023-05-29T00:35:36;11.47;;;4.03;;
65769;SDS011;52512;47.650;8.578;2023-05-29T00:38:01;24.07;;;4.87;;
65769;SDS011;52512;47.650;8.578;2023-05-29T00:40:27;11.07;;;3.87;;
65769;SDS011;52512;47.650;8.578;2023-05-29T00:42:53;12.03;;;4.67;;
65769;SDS011;52512;47.650;8.578;2023-05-29T00:45:18;9.03;;;4.40;;
65769;SDS011;52512;47.650;8.578;2023-05-29T00:47:44;7.00;;;4.60;;
65769;SDS011;52512;47.650;8.578;2023-05-29T00:50:11;10.40;;;4.70;;
65769;SDS011;52512;47.650;8.578;2023-05-29T00:52:39;17.70;;;4.27;;
65769;SDS011;52512;47.650;8.578;2023-05-29T00:55:06;7.90;;;4.83;;
65769;SDS011;52512;47.650;8.578;2023-05-29T00:57:34;14.80;;;4.20;;
65769;SDS011;52512;47.650;8.578;2023-05-29T01:00:01;12.57;;;5.00;;
65769;SDS011;52512;47.650;8.578;2023-05-29T01:02:39;8.73;;;4.60;;
65769;SDS011;52512;47.650;8.578;2023-05-29T01:05:09;6.80;;;4.30;;
65769;SDS011;52512;47.650;8.578;2023-05-29T01:07:38;7.20;;;4.10;;
65769;SDS011;52512;47.650;8.578;2023-05-29T01:10:04;9.87;;;4.40;;
65769;SDS011;52512;47.650;8.578;2023-05-29T01:12:43;9.63;;;3.90;;
65769;SDS011;52512;47.650;8.578;2023-05-29T01:18:19;7.10;;;3.35;;
65769;SDS011;52512;47.650;8.578;2023-05-29T01:29:06;10.00;;;3.60;;
65769;SDS011;52512;47.650;8.578;2023-05-29T01:31:33;16.23;;;4.87;;
65769;SDS011;52512;47.650;8.578;2023-05-29T01:34:00;7.27;;;4.20;;
65769;SDS011;52512;47.650;8.578;2023-05-29T01:36:26;7.10;;;3.90;;
65769;SDS011;52512;47.650;8.578;2023-05-29T01:38:53;12.80;;;4.35;;
65769;SDS011;52512;47.650;8.578;2023-05-29T01:41:21;8.23;;;4.35;;
65769;SDS011;52512;47.650;8.578;2023-05-29T01:43:48;14.50;;;4.53;;
65769;SDS011;52512;47.650;8.578;2023-05-29T01:46:15;9.85;;;4.55;;
65769;SDS011;52512;47.650;8.578;2023-05-29T01:48:43;10.10;;;4.50;;
65769;SDS011;52512;47.650;8.578;2023-05-29T01:51:10;11.13;;;4.22;;
65769;SDS011;52512;47.650;8.578;2023-05-29T01:53:37;10.02;;;5.03;;
65769;SDS011;52512;47.650;8.578;2023-05-29T01:56:04;11.98;;;4.43;;
65769;SDS011;52512;47.650;8.578;2023-05-29T01:58:31;7.18;;;4.00;;
65769;SDS011;52512;47.650;8.578;2023-05-29T02:00:57;13.38;;;5.43;;
65769;SDS011;52512;47.650;8.578;2023-05-29T02:03:24;6.73;;;4.13;;
65769;SDS011;52512;47.650;8.578;2023-05-29T02:05:53;7.00;;;4.20;;
65769;SDS011;52512;47.650;8.578;2023-05-29T02:08:20;7.88;;;3.75;;
65769;SDS011;52512;47.650;8.578;2023-05-29T02:10:46;12.43;;;4.73;;
65769;SDS011;52512;47.650;8.578;2023-05-29T02:13:11;10.37;;;4.47;;
65769;SDS011;52512;47.650;8.578;2023-05-29T02:15:37;11.10;;;5.17;;
65769;SDS011;52512;47.650;8.578;2023-05-29T02:18:02;9.83;;;4.13;;
65769;SDS011;52512;47.650;8.578;2023-05-29T02:20:28;10.30;;;4.33;;
65769;SDS011;52512;47.650;8.578;2023-05-29T02:22:54;6.03;;;3.60;;
65769;SDS011;52512;47.650;8.578;2023-05-29T02:25:19;10.70;;;4.63;;
65769;SDS011;52512;47.650;8.578;2023-05-29T02:27:45;13.03;;;4.70;;
65769;SDS011;52512;47.650;8.578;2023-05-29T02:30:11;13.80;;;4.53;;
65769;SDS011;52512;47.650;8.578;2023-05-29T02:32:36;13.63;;;5.43;;
65769;SDS011;52512;47.650;8.578;2023-05-29T02:35:02;11.80;;;4.83;;
65769;SDS011;52512;47.650;8.578;2023-05-29T02:37:28;10.80;;;4.47;;
65769;SDS011;52512;47.650;8.578;2023-05-29T02:39:54;5.93;;;4.20;;
65769;SDS011;52512;47.650;8.578;2023-05-29T02:42:20;9.10;;;4.50;;
65769;SDS011;52512;47.650;8.578;2023-05-29T02:44:45;10.67;;;5.13;;
65769;SDS011;52512;47.650;8.578;2023-05-29T02:47:11;8.47;;;4.13;;
65769;SDS011;52512;47.650;8.578;2023-05-29T02:49:36;12.07;;;4.33;;
65769;SDS011;52512;47.650;8.578;2023-05-29T02:52:02;10.40;;;4.03;;
65769;SDS011;52512;47.650;8.578;2023-05-29T02:54:28;9.00;;;4.60;;
65769;SDS011;52512;47.650;8.578;2023-05-29T02:56:54;10.77;;;4.60;;
65769;SDS011;52512;47.650;8.578;2023-05-29T02:59:19;7.03;;;4.47;;
65769;SDS011;52512;47.650;8.578;2023-05-29T03:01:45;26.10;;;4.43;;
65769;SDS011;52512;47.650;8.578;2023-05-29T03:04:12;11.43;;;5.05;;
65769;SDS011;52512;47.650;8.578;2023-05-29T03:06:38;9.97;;;4.50;;
65769;SDS011;52512;47.650;8.578;2023-05-29T03:09:03;12.17;;;4.80;;
65769;SDS011;52512;47.650;8.578;2023-05-29T03:11:30;8.45;;;4.25;;
65769;SDS011;52512;47.650;8.578;2023-05-29T03:13:57;11.80;;;4.95;;
65769;SDS011;52512;47.650;8.578;2023-05-29T03:16:23;7.23;;;4.00;;
65769;SDS011;52512;47.650;8.578;2023-05-29T03:18:50;12.25;;;4.32;;
65769;SDS011;52512;47.650;8.578;2023-05-29T03:21:15;8.80;;;4.03;;
65769;SDS011;52512;47.650;8.578;2023-05-29T03:23:42;11.80;;;5.40;;
65769;SDS011;52512;47.650;8.578;2023-05-29T03:26:07;13.33;;;4.70;;
65769;SDS011;52512;47.650;8.578;2023-05-29T03:28:33;15.43;;;4.93;;
65769;SDS011;52512;47.650;8.578;2023-05-29T03:30:59;9.65;;;5.28;;
65769;SDS011;52512;47.650;8.578;2023-05-29T03:33:25;10.07;;;4.13;;
65769;SDS011;52512;47.650;8.578;2023-05-29T03:35:51;15.77;;;4.37;;
65769;SDS011;52512;47.650;8.578;2023-05-29T03:38:16;8.93;;;5.27;;
65769;SDS011;52512;47.650;8.578;2023-05-29T03:40:42;11.43;;;5.70;;
65769;SDS011;52512;47.650;8.578;2023-05-29T03:43:08;10.17;;;4.93;;
65769;SDS011;52512;47.650;8.578;2023-05-29T03:45:33;9.00;;;4.40;;
65769;SDS011;52512;47.650;8.578;2023-05-29T03:47:59;8.77;;;4.60;;
65769;SDS011;52512;47.650;8.578;2023-05-29T03:50:25;10.27;;;4.40;;
65769;SDS011;52512;47.650;8.578;2023-05-29T03:52:51;8.50;;;3.83;;
65769;SDS011;52512;47.650;8.578;2023-05-29T03:55:16;9.17;;;4.03;;
65769;SDS011;52512;47.650;8.578;2023-05-29T03:57:42;13.40;;;4.70;;
65769;SDS011;52512;47.650;8.578;2023-05-29T04:00:11;13.03;;;5.40;;
65769;SDS011;52512;47.650;8.578;2023-05-29T04:02:37;12.18;;;5.20;;
65769;SDS011;52512;47.650;8.578;2023-05-29T04:05:04;8.55;;;4.63;;
65769;SDS011;52512;47.650;8.578;2023-05-29T04:07:31;10.35;;;4.68;;
65769;SDS011;52512;47.650;8.578;2023-05-29T04:09:58;8.07;;;4.20;;
65769;SDS011;52512;47.650;8.578;2023-05-29T04:12:24;6.93;;;4.60;;
65769;SDS011;52512;47.650;8.578;2023-05-29T04:14:50;11.63;;;4.90;;
65769;SDS011;52512;47.650;8.578;2023-05-29T04:17:15;7.57;;;4.43;;
65769;SDS011;52512;47.650;8.578;2023-05-29T04:19:41;8.17;;;4.30;;
65769;SDS011;52512;47.650;8.578;2023-05-29T04:22:06;13.87;;;5.33;;
65769;SDS011;52512;47.650;8.578;2023-05-29T04:24:32;16.13;;;5.00;;
65769;SDS011;52512;47.650;8.578;2023-05-29T04:26:58;9.07;;;5.13;;
65769;SDS011;52512;47.650;8.578;2023-05-29T04:29:25;11.98;;;5.10;;
65769;SDS011;52512;47.650;8.578;2023-05-29T04:31:51;15.88;;;5.53;;
65769;SDS011;52512;47.650;8.578;2023-05-29T04:34:17;13.13;;;6.03;;
65769;SDS011;52512;47.650;8.578;2023-05-29T04:36:43;12.20;;;5.17;;
65769;SDS011;52512;47.650;8.578;2023-05-29T04:39:08;13.20;;;5.80;;
65769;SDS011;52512;47.650;8.578;2023-05-29T04:41:34;10.67;;;4.67;;
65769;SDS011;52512;47.650;8.578;2023-05-29T04:44:00;10.90;;;4.50;;
65769;SDS011;52512;47.650;8.578;2023-05-29T04:46:26;9.60;;;4.93;;
65769;SDS011;52512;47.650;8.578;2023-05-29T04:48:52;9.90;;;4.87;;
65769;SDS011;52512;47.650;8.578;2023-05-29T04:51:22;12.98;;;5.43;;
65769;SDS011;52512;47.650;8.578;2023-05-29T04:53:48;9.15;;;4.30;;
65769;SDS011;52512;47.650;8.578;2023-05-29T04:56:17;12.23;;;4.55;;
65769;SDS011;52512;47.650;8.578;2023-05-29T04:58:43;7.25;;;4.25;;
65769;SDS011;52512;47.650;8.578;2023-05-29T05:01:09;14.60;;;5.43;;
65769;SDS011;52512;47.650;8.578;2023-05-29T05:03:39;9.20;;;4.70;;
65769;SDS011;52512;47.650;8.578;2023-05-29T05:06:08;12.70;;;6.03;;
65769;SDS011;52512;47.650;8.578;2023-05-29T05:08:34;7.60;;;4.35;;
65769;SDS011;52512;47.650;8.578;2023-05-29T05:11:01;16.47;;;5.00;;
65769;SDS011;52512;47.650;8.578;2023-05-29T05:13:27;12.88;;;5.30;;
65769;SDS011;52512;47.650;8.578;2023-05-29T05:15:53;11.97;;;5.30;;
65769;SDS011;52512;47.650;8.578;2023-05-29T05:18:19;12.70;;;4.83;;
65769;SDS011;52512;47.650;8.578;2023-05-29T05:20:45;15.93;;;4.07;;
65769;SDS011;52512;47.650;8.578;2023-05-29T05:23:11;11.35;;;4.15;;
65769;SDS011;52512;47.650;8.578;2023-05-29T05:25:36;10.83;;;4.17;;
65769;SDS011;52512;47.650;8.578;2023-05-29T05:28:03;9.00;;;4.30;;
65769;SDS011;52512;47.650;8.578;2023-05-29T05:30:29;10.95;;;4.93;;
65769;SDS011;52512;47.650;8.578;2023-05-29T05:32:55;11.57;;;4.97;;
65769;SDS011;52512;47.650;8.578;2023-05-29T05:35:21;18.23;;;4.73;;
65769;SDS011;52512;47.650;8.578;2023-05-29T05:37:47;12.27;;;5.13;;
65769;SDS011;52512;47.650;8.578;2023-05-29T05:40:13;9.70;;;4.93;;
65769;SDS011;52512;47.650;8.578;2023-05-29T05:42:38;9.20;;;4.47;;
65769;SDS011;52512;47.650;8.578;2023-05-29T05:45:04;11.83;;;4.83;;
65769;SDS011;52512;47.650;8.578;2023-05-29T05:47:31;11.77;;;4.80;;
65769;SDS011;52512;47.650;8.578;2023-05-29T05:49:57;10.70;;;5.43;;
65769;SDS011;52512;47.650;8.578;2023-05-29T05:52:23;12.27;;;5.30;;
65769;SDS011;52512;47.650;8.578;2023-05-29T05:54:49;11.52;;;6.05;;
65769;SDS011;52512;47.650;8.578;2023-05-29T05:57:15;18.23;;;6.03;;
65769;SDS011;52512;47.650;8.578;2023-05-29T05:59:40;13.27;;;5.80;;
65769;SDS011;52512;47.650;8.578;2023-05-29T06:02:06;8.23;;;5.27;;
65769;SDS011;52512;47.650;8.578;2023-05-29T06:04:32;8.03;;;4.33;;
65769;SDS011;52512;47.650;8.578;2023-05-29T06:06:57;6.83;;;3.83;;
65769;SDS011;52512;47.650;8.578;2023-05-29T06:09:23;15.53;;;5.53;;
65769;SDS011;52512;47.650;8.578;2023-05-29T06:11:50;11.02;;;4.78;;
65769;SDS011;52512;47.650;8.578;2023-05-29T06:14:15;16.43;;;5.53;;
65769;SDS011;52512;47.650;8.578;2023-05-29T06:16:41;11.97;;;5.10;;
65769;SDS011;52512;47.650;8.578;2023-05-29T06:19:08;10.87;;;4.97;;
65769;SDS011;52512;47.650;8.578;2023-05-29T06:21:34;9.17;;;4.53;;
65769;SDS011;52512;47.650;8.578;2023-05-29T06:23:59;10.40;;;5.13;;
65769;SDS011;52512;47.650;8.578;2023-05-29T06:26:25;7.67;;;4.67;;
65769;SDS011;52512;47.650;8.578;2023-05-29T06:28:51;8.90;;;4.67;;
65769;SDS011;52512;47.650;8.578;2023-05-29T06:31:17;19.70;;;4.90;;
65769;SDS011;52512;47.650;8.578;2023-05-29T06:33:43;8.97;;;4.27;;
65769;SDS011;52512;47.650;8.578;2023-05-29T06:36:09;8.93;;;4.43;;
65769;SDS011;52512;47.650;8.578;2023-05-29T06:38:35;11.20;;;4.37;;
65769;SDS011;52512;47.650;8.578;2023-05-29T06:41:01;8.77;;;4.90;;
65769;SDS011;52512;47.650;8.578;2023-05-29T06:43:27;8.93;;;5.03;;
65769;SDS011;52512;47.650;8.578;2023-05-29T06:45:53;20.93;;;4.67;;
65769;SDS011;52512;47.650;8.578;2023-05-29T06:48:19;12.70;;;4.67;;
65769;SDS011;52512;47.650;8.578;2023-05-29T06:50:45;16.77;;;5.07;;
65769;SDS011;52512;47.650;8.578;2023-05-29T06:53:12;15.63;;;6.80;;
65769;SDS011;52512;47.650;8.578;2023-05-29T06:55:38;17.70;;;5.30;;
65769;SDS011;52512;47.650;8.578;2023-05-29T06:58:05;7.00;;;3.43;;
65769;SDS011;52512;47.650;8.578;2023-05-29T07:00:31;5.80;;;3.50;;
65769;SDS011;52512;47.650;8.578;2023-05-29T07:02:57;7.50;;;4.20;;
65769;SDS011;52512;47.650;8.578;2023-05-29T07:05:23;17.63;;;4.50;;
65769;SDS011;52512;47.650;8.578;2023-05-29T07:07:48;6.23;;;4.07;;
65769;SDS011;52512;47.650;8.578;2023-05-29T07:10:14;10.97;;;4.80;;
65769;SDS011;52512;47.650;8.578;2023-05-29T07:12:40;7.40;;;3.23;;
65769;SDS011;52512;47.650;8.578;2023-05-29T07:15:05;6.03;;;3.27;;
65769;SDS011;52512;47.650;8.578;2023-05-29T07:17:32;11.53;;;4.00;;
65769;SDS011;52512;47.650;8.578;2023-05-29T07:19:58;13.20;;;4.13;;
65769;SDS011;52512;47.650;8.578;2023-05-29T07:22:23;7.60;;;3.93;;
65769;SDS011;52512;47.650;8.578;2023-05-29T07:24:49;5.70;;;3.50;;
65769;SDS011;52512;47.650;8.578;2023-05-29T07:27:15;8.10;;;4.70;;
65769;SDS011;52512;47.650;8.578;2023-05-29T07:29:41;7.07;;;4.33;;
65769;SDS011;52512;47.650;8.578;2023-05-29T07:32:06;11.57;;;4.43;;
65769;SDS011;52512;47.650;8.578;2023-05-29T07:34:32;7.77;;;4.60;;
65769;SDS011;52512;47.650;8.578;2023-05-29T07:37:01;8.70;;;5.10;;
65769;SDS011;52512;47.650;8.578;2023-05-29T07:39:32;16.07;;;5.10;;
65769;SDS011;52512;47.650;8.578;2023-05-29T07:41:59;12.27;;;4.30;;
65769;SDS011;52512;47.650;8.578;2023-05-29T07:44:26;10.00;;;3.47;;
65769;SDS011;52512;47.650;8.578;2023-05-29T07:46:52;12.17;;;3.57;;
65769;SDS011;52512;47.650;8.578;2023-05-29T07:49:19;8.70;;;4.27;;
65769;SDS011;52512;47.650;8.578;2023-05-29T07:51:45;12.70;;;4.87;;
65769;SDS011;52512;47.650;8.578;2023-05-29T07:54:11;5.93;;;3.53;;
65769;SDS011;52512;47.650;8.578;2023-05-29T07:56:36;13.00;;;4.40;;
65769;SDS011;52512;47.650;8.578;2023-05-29T07:59:03;10.83;;;4.70;;
65769;SDS011;52512;47.650;8.578;2023-05-29T08:01:30;10.83;;;4.60;;
65769;SDS011;52512;47.650;8.578;2023-05-29T08:03:56;8.43;;;4.33;;
65769;SDS011;52512;47.650;8.578;2023-05-29T08:06:21;21.57;;;4.13;;
65769;SDS011;52512;47.650;8.578;2023-05-29T08:08:47;6.40;;;4.27;;
65769;SDS011;52512;47.650;8.578;2023-05-29T08:11:13;9.80;;;3.97;;
65769;SDS011;52512;47.650;8.578;2023-05-29T08:13:38;13.43;;;4.40;;
65769;SDS011;52512;47.650;8.578;2023-05-29T08:16:04;8.40;;;3.73;;
65769;SDS011;52512;47.650;8.578;2023-05-29T08:18:30;8.30;;;4.60;;
65769;SDS011;52512;47.650;8.578;2023-05-29T08:21:00;8.57;;;4.30;;
65769;SDS011;52512;47.650;8.578;2023-05-29T08:23:25;6.90;;;4.27;;
65769;SDS011;52512;47.650;8.578;2023-05-29T08:25:51;8.03;;;4.07;;
65769;SDS011;52512;47.650;8.578;2023-05-29T08:28:17;11.60;;;4.27;;
65769;SDS011;52512;47.650;8.578;2023-05-29T08:30:42;6.67;;;3.57;;
65769;SDS011;52512;47.650;8.578;2023-05-29T08:33:08;11.40;;;3.80;;
65769;SDS011;52512;47.650;8.578;2023-05-29T08:35:34;11.70;;;4.30;;
65769;SDS011;52512;47.650;8.578;2023-05-29T08:38:00;9.43;;;3.87;;
65769;SDS011;52512;47.650;8.578;2023-05-29T08:40:26;10.30;;;4.43;;
65769;SDS011;52512;47.650;8.578;2023-05-29T08:42:59;5.67;;;3.23;;
65769;SDS011;52512;47.650;8.578;2023-05-29T08:45:30;15.03;;;4.80;;
65769;SDS011;52512;47.650;8.578;2023-05-29T08:48:00;11.93;;;3.90;;
65769;SDS011;52512;47.650;8.578;2023-05-29T08:50:27;9.77;;;4.10;;
65769;SDS011;52512;47.650;8.578;2023-05-29T08:52:53;13.10;;;4.27;;
65769;SDS011;52512;47.650;8.578;2023-05-29T08:55:18;5.20;;;3.63;;
65769;SDS011;52512;47.650;8.578;2023-05-29T08:57:44;8.07;;;3.63;;
65769;SDS011;52512;47.650;8.578;2023-05-29T09:00:13;9.43;;;4.03;;
65769;SDS011;52512;47.650;8.578;2023-05-29T09:02:43;11.03;;;4.67;;
65769;SDS011;52512;47.650;8.578;2023-05-29T09:05:09;6.80;;;4.50;;
65769;SDS011;52512;47.650;8.578;2023-05-29T09:07:35;10.60;;;4.53;;
65769;SDS011;52512;47.650;8.578;2023-05-29T09:10:08;6.90;;;3.60;;
65769;SDS011;52512;47.650;8.578;2023-05-29T09:12:34;7.73;;;3.93;;
65769;SDS011;52512;47.650;8.578;2023-05-29T09:15:00;12.50;;;4.10;;
65769;SDS011;52512;47.650;8.578;2023-05-29T09:17:30;8.37;;;4.00;;
65769;SDS011;52512;47.650;8.578;2023-05-29T09:20:00;8.10;;;5.00;;
65769;SDS011;52512;47.650;8.578;2023-05-29T09:22:25;9.70;;;4.60;;
65769;SDS011;52512;47.650;8.578;2023-05-29T09:24:51;10.40;;;5.10;;
65769;SDS011;52512;47.650;8.578;2023-05-29T09:27:17;7.87;;;4.20;;
65769;SDS011;52512;47.650;8.578;2023-05-29T09:29:44;10.10;;;5.10;;
65769;SDS011;52512;47.650;8.578;2023-05-29T09:32:17;6.37;;;4.20;;
65769;SDS011;52512;47.650;8.578;2023-05-29T09:34:43;7.90;;;4.17;;
65769;SDS011;52512;47.650;8.578;2023-05-29T09:37:10;10.83;;;3.73;;
65769;SDS011;52512;47.650;8.578;2023-05-29T09:39:50;7.50;;;3.70;;
65769;SDS011;52512;47.650;8.578;2023-05-29T09:42:19;10.13;;;5.00;;
65769;SDS011;52512;47.650;8.578;2023-05-29T09:44:46;4.33;;;3.47;;
65769;SDS011;52512;47.650;8.578;2023-05-29T09:47:16;6.57;;;3.57;;
65769;SDS011;52512;47.650;8.578;2023-05-29T09:49:42;11.63;;;4.03;;
65769;SDS011;52512;47.650;8.578;2023-05-29T09:52:12;8.77;;;4.47;;
65769;SDS011;52512;47.650;8.578;2023-05-29T09:54:41;6.43;;;4.03;;
65769;SDS011;52512;47.650;8.578;2023-05-29T09:57:16;9.30;;;3.53;;
65769;SDS011;52512;47.650;8.578;2023-05-29T09:59:45;5.30;;;3.97;;
65769;SDS011;52512;47.650;8.578;2023-05-29T10:02:16;5.23;;;3.50;;
65769;SDS011;52512;47.650;8.578;2023-05-29T10:04:42;6.57;;;4.03;;
65769;SDS011;52512;47.650;8.578;2023-05-29T10:07:27;4.70;;;3.77;;
65769;SDS011;52512;47.650;8.578;2023-05-29T10:10:00;7.07;;;4.23;;
65769;SDS011;52512;47.650;8.578;2023-05-29T10:12:28;4.37;;;3.80;;
65769;SDS011;52512;47.650;8.578;2023-05-29T10:14:59;6.40;;;3.60;;
65769;SDS011;52512;47.650;8.578;2023-05-29T10:17:28;6.83;;;3.60;;
65769;SDS011;52512;47.650;8.578;2023-05-29T10:20:01;7.57;;;5.10;;
65769;SDS011;52512;47.650;8.578;2023-05-29T10:22:32;8.73;;;4.70;;
65769;SDS011;52512;47.650;8.578;2023-05-29T10:24:58;7.30;;;4.30;;
65769;SDS011;52512;47.650;8.578;2023-05-29T10:27:25;6.87;;;4.10;;
65769;SDS011;52512;47.650;8.578;2023-05-29T10:30:09;7.90;;;4.33;;
65769;SDS011;52512;47.650;8.578;2023-05-29T10:38:26;8.47;;;4.87;;
65769;SDS011;52512;47.650;8.578;2023-05-29T10:40:52;9.93;;;3.90;;
65769;SDS011;52512;47.650;8.578;2023-05-29T10:43:35;5.20;;;3.60;;
65769;SDS011;52512;47.650;8.578;2023-05-29T10:46:02;5.80;;;3.77;;
65769;SDS011;52512;47.650;8.578;2023-05-29T10:48:38;5.50;;;3.90;;
65769;SDS011;52512;47.650;8.578;2023-05-29T10:51:05;5.90;;;3.80;;
65769;SDS011;52512;47.650;8.578;2023-05-29T10:53:32;5.43;;;4.17;;
65769;SDS011;52512;47.650;8.578;2023-05-29T10:55:59;6.67;;;4.10;;
65769;SDS011;52512;47.650;8.578;2023-05-29T10:58:26;13.60;;;4.73;;
65769;SDS011;52512;47.650;8.578;2023-05-29T11:00:53;7.47;;;4.53;;
65769;SDS011;52512;47.650;8.578;2023-05-29T11:03:24;12.57;;;5.30;;
65769;SDS011;52512;47.650;8.578;2023-05-29T11:06:01;16.03;;;7.57;;
65769;SDS011;52512;47.650;8.578;2023-05-29T11:08:46;12.43;;;4.87;;
65769;SDS011;52512;47.650;8.578;2023-05-29T11:11:13;11.63;;;5.83;;
65769;SDS011;52512;47.650;8.578;2023-05-29T11:13:39;16.33;;;5.77;;
65769;SDS011;52512;47.650;8.578;2023-05-29T11:18:46;12.00;;;6.50;;
65769;SDS011;52512;47.650;8.578;2023-05-29T11:24:37;9.27;;;5.30;;
65769;SDS011;52512;47.650;8.578;2023-05-29T11:27:05;7.00;;;4.83;;
65769;SDS011;52512;47.650;8.578;2023-05-29T11:29:33;14.00;;;4.90;;
65769;SDS011;52512;47.650;8.578;2023-05-29T11:34:30;8.00;;;4.87;;
65769;SDS011;52512;47.650;8.578;2023-05-29T11:37:03;7.07;;;4.60;;
65769;SDS011;52512;47.650;8.578;2023-05-29T11:39:29;8.17;;;4.90;;
65769;SDS011;52512;47.650;8.578;2023-05-29T11:41:56;8.93;;;4.90;;
65769;SDS011;52512;47.650;8.578;2023-05-29T11:44:24;11.13;;;5.67;;
65769;SDS011;52512;47.650;8.578;2023-05-29T11:49:30;14.10;;;5.03;;
65769;SDS011;52512;47.650;8.578;2023-05-29T11:52:06;9.03;;;5.37;;
65769;SDS011;52512;47.650;8.578;2023-05-29T11:54:33;13.10;;;6.27;;
65769;SDS011;52512;47.650;8.578;2023-05-29T11:57:02;9.30;;;4.57;;
65769;SDS011;52512;47.650;8.578;2023-05-29T11:59:30;7.77;;;5.00;;
65769;SDS011;52512;47.650;8.578;2023-05-29T12:01:59;10.93;;;4.83;;
65769;SDS011;52512;47.650;8.578;2023-05-29T12:04:28;6.27;;;3.57;;
65769;SDS011;52512;47.650;8.578;2023-05-29T12:06:53;8.50;;;4.83;;
65769;SDS011;52512;47.650;8.578;2023-05-29T12:09:26;6.53;;;4.23;;
65769;SDS011;52512;47.650;8.578;2023-05-29T12:11:53;10.63;;;4.97;;
65769;SDS011;52512;47.650;8.578;2023-05-29T12:14:25;6.27;;;4.23;;
65769;SDS011;52512;47.650;8.578;2023-05-29T12:16:51;8.30;;;4.37;;
65769;SDS011;52512;47.650;8.578;2023-05-29T12:19:17;10.93;;;4.90;;
65769;SDS011;52512;47.650;8.578;2023-05-29T12:21:43;17.20;;;5.20;;
65769;SDS011;52512;47.650;8.578;2023-05-29T12:24:09;8.97;;;4.10;;
65769;SDS011;52512;47.650;8.578;2023-05-29T12:26:35;5.70;;;4.30;;
65769;SDS011;52512;47.650;8.578;2023-05-29T12:29:05;15.83;;;4.93;;
65769;SDS011;52512;47.650;8.578;2023-05-29T12:31:30;9.00;;;4.33;;
65769;SDS011;52512;47.650;8.578;2023-05-29T12:34:00;10.33;;;4.23;;
65769;SDS011;52512;47.650;8.578;2023-05-29T12:36:27;7.13;;;4.93;;
65769;SDS011;52512;47.650;8.578;2023-05-29T12:38:53;10.43;;;5.80;;
65769;SDS011;52512;47.650;8.578;2023-05-29T12:41:29;8.33;;;3.83;;
65769;SDS011;52512;47.650;8.578;2023-05-29T12:43:58;11.37;;;6.57;;
65769;SDS011;52512;47.650;8.578;2023-05-29T12:46:26;10.33;;;5.53;;
65769;SDS011;52512;47.650;8.578;2023-05-29T12:48:52;9.93;;;5.40;;
65769;SDS011;52512;47.650;8.578;2023-05-29T12:51:25;10.00;;;4.80;;
65769;SDS011;52512;47.650;8.578;2023-05-29T12:53:51;6.03;;;3.93;;
65769;SDS011;52512;47.650;8.578;2023-05-29T12:56:20;4.93;;;3.73;;
65769;SDS011;52512;47.650;8.578;2023-05-29T12:58:51;7.87;;;3.80;;
65769;SDS011;52512;47.650;8.578;2023-05-29T13:01:17;6.20;;;4.00;;
65769;SDS011;52512;47.650;8.578;2023-05-29T13:03:43;7.33;;;3.73;;
65769;SDS011;52512;47.650;8.578;2023-05-29T13:06:09;7.27;;;3.60;;
65769;SDS011;52512;47.650;8.578;2023-05-29T13:08:35;3.53;;;3.03;;
65769;SDS011;52512;47.650;8.578;2023-05-29T13:11:01;7.43;;;4.57;;
65769;SDS011;52512;47.650;8.578;2023-05-29T13:13:27;7.53;;;4.60;;
65769;SDS011;52512;47.650;8.578;2023-05-29T13:15:53;7.47;;;4.43;;
65769;SDS011;52512;47.650;8.578;2023-05-29T13:18:18;11.70;;;4.70;;
65769;SDS011;52512;47.650;8.578;2023-05-29T13:20:44;6.10;;;3.90;;
65769;SDS011;52512;47.650;8.578;2023-05-29T13:23:09;6.30;;;3.70;;
65769;SDS011;52512;47.650;8.578;2023-05-29T13:25:35;10.87;;;4.87;;
65769;SDS011;52512;47.650;8.578;2023-05-29T13:28:01;17.13;;;3.63;;
65769;SDS011;52512;47.650;8.578;2023-05-29T13:30:26;7.47;;;3.80;;
65769;SDS011;52512;47.650;8.578;2023-05-29T13:32:52;8.20;;;4.20;;
65769;SDS011;52512;47.650;8.578;2023-05-29T13:35:18;7.80;;;3.67;;
65769;SDS011;52512;47.650;8.578;2023-05-29T13:37:44;8.53;;;4.23;;
65769;SDS011;52512;47.650;8.578;2023-05-29T13:40:10;7.63;;;3.80;;
65769;SDS011;52512;47.650;8.578;2023-05-29T13:42:38;5.00;;;2.93;;
65769;SDS011;52512;47.650;8.578;2023-05-29T13:45:05;17.87;;;3.03;;
65769;SDS011;52512;47.650;8.578;2023-05-29T13:47:32;6.27;;;3.90;;
65769;SDS011;52512;47.650;8.578;2023-05-29T13:49:58;4.30;;;2.63;;
65769;SDS011;52512;47.650;8.578;2023-05-29T13:52:24;6.67;;;3.70;;
65769;SDS011;52512;47.650;8.578;2023-05-29T13:54:51;5.63;;;3.33;;
65769;SDS011;52512;47.650;8.578;2023-05-29T13:57:16;7.13;;;3.13;;
65769;SDS011;52512;47.650;8.578;2023-05-29T13:59:42;11.90;;;3.43;;
65769;SDS011;52512;47.650;8.578;2023-05-29T14:02:08;3.87;;;3.10;;
65769;SDS011;52512;47.650;8.578;2023-05-29T14:04:34;7.50;;;2.43;;
65769;SDS011;52512;47.650;8.578;2023-05-29T14:07:00;6.23;;;3.30;;
65769;SDS011;52512;47.650;8.578;2023-05-29T14:09:25;3.63;;;3.00;;
65769;SDS011;52512;47.650;8.578;2023-05-29T14:11:54;7.70;;;2.80;;
65769;SDS011;52512;47.650;8.578;2023-05-29T14:14:20;7.47;;;2.97;;
65769;SDS011;52512;47.650;8.578;2023-05-29T14:16:46;3.93;;;2.80;;
65769;SDS011;52512;47.650;8.578;2023-05-29T14:19:13;7.80;;;3.17;;
65769;SDS011;52512;47.650;8.578;2023-05-29T14:21:38;8.33;;;3.47;;
65769;SDS011;52512;47.650;8.578;2023-05-29T14:24:04;4.30;;;3.20;;
65769;SDS011;52512;47.650;8.578;2023-05-29T14:26:30;5.00;;;3.60;;
65769;SDS011;52512;47.650;8.578;2023-05-29T14:28:55;7.30;;;3.67;;
65769;SDS011;52512;47.650;8.578;2023-05-29T14:31:21;5.23;;;3.43;;
65769;SDS011;52512;47.650;8.578;2023-05-29T14:33:47;8.93;;;3.47;;
65769;SDS011;52512;47.650;8.578;2023-05-29T14:36:12;6.30;;;3.27;;
65769;SDS011;52512;47.650;8.578;2023-05-29T14:38:38;9.87;;;3.30;;
65769;SDS011;52512;47.650;8.578;2023-05-29T14:41:04;3.33;;;2.63;;
65769;SDS011;52512;47.650;8.578;2023-05-29T14:43:29;2.93;;;2.63;;
65769;SDS011;52512;47.650;8.578;2023-05-29T14:45:55;5.83;;;2.77;;
65769;SDS011;52512;47.650;8.578;2023-05-29T14:48:21;3.60;;;2.80;;
65769;SDS011;52512;47.650;8.578;2023-05-29T14:50:46;4.13;;;2.63;;
65769;SDS011;52512;47.650;8.578;2023-05-29T14:53:12;8.00;;;2.57;;
65769;SDS011;52512;47.650;8.578;2023-05-29T14:55:37;4.33;;;3.00;;
65769;SDS011;52512;47.650;8.578;2023-05-29T14:58:04;6.10;;;2.60;;
65769;SDS011;52512;47.650;8.578;2023-05-29T15:00:30;3.93;;;2.63;;
65769;SDS011;52512;47.650;8.578;2023-05-29T15:02:56;10.00;;;3.30;;
65769;SDS011;52512;47.650;8.578;2023-05-29T15:05:24;4.83;;;2.37;;
65769;SDS011;52512;47.650;8.578;2023-05-29T15:07:50;8.00;;;3.30;;
65769;SDS011;52512;47.650;8.578;2023-05-29T15:10:16;2.57;;;2.20;;